createdAt,value
2016-08-07T00:00:02.556Z,16
2016-08-07T00:00:12.552Z,16
2016-08-07T00:00:22.548Z,16
2016-08-07T00:00:32.541Z,16
2016-08-07T00:00:42.537Z,16
2016-08-07T00:00:52.533Z,16
2016-08-07T00:01:02.527Z,16.1
2016-08-07T00:01:12.522Z,16.1
2016-08-07T00:01:22.516Z,16.1
2016-08-07T00:01:32.513Z,16
2016-08-07T00:01:42.517Z,16.1
2016-08-07T00:01:52.504Z,16.1
2016-08-07T00:02:02.496Z,16
2016-08-07T00:02:12.495Z,16
2016-08-07T00:02:22.489Z,16
2016-08-07T00:02:32.482Z,16
2016-08-07T00:02:42.485Z,16.1
2016-08-07T00:02:52.475Z,16
2016-08-07T00:03:02.470Z,16.1
2016-08-07T00:03:12.463Z,16.1
2016-08-07T00:03:22.459Z,16.1
2016-08-07T00:03:32.455Z,16.1
2016-08-07T00:03:42.447Z,16.1
2016-08-07T00:03:52.443Z,16
2016-08-07T00:04:02.439Z,16
2016-08-07T00:04:12.437Z,16
2016-08-07T00:04:22.430Z,16.1
2016-08-07T00:04:32.427Z,16.1
2016-08-07T00:04:42.418Z,16.1
2016-08-07T00:04:52.412Z,16.1
2016-08-07T00:05:02.411Z,16.1
2016-08-07T00:05:12.407Z,16.1
2016-08-07T00:05:22.398Z,16.1
2016-08-07T00:05:32.395Z,16.1
2016-08-07T00:05:42.391Z,16.1
2016-08-07T00:05:52.392Z,16.1
2016-08-07T00:06:02.380Z,16.1
2016-08-07T00:06:12.375Z,16.1
2016-08-07T00:06:22.370Z,16.1
2016-08-07T00:06:32.370Z,16.1
2016-08-07T00:06:42.363Z,16.1
2016-08-07T00:06:52.355Z,16.1
2016-08-07T00:07:02.352Z,16.1
2016-08-07T00:07:12.346Z,16.1
2016-08-07T00:07:22.341Z,16.1
2016-08-07T00:07:32.336Z,16.1
2016-08-07T00:07:42.331Z,16.1
2016-08-07T00:07:52.327Z,16.1
2016-08-07T00:08:02.323Z,16.1
2016-08-07T00:08:12.316Z,16.1
2016-08-07T00:08:22.313Z,16.1
2016-08-07T00:08:32.306Z,16.1
2016-08-07T00:08:42.301Z,16.1
2016-08-07T00:08:52.298Z,16.1
2016-08-07T00:09:02.297Z,16.1
2016-08-07T00:09:12.287Z,16.1
2016-08-07T00:09:22.281Z,16.1
2016-08-07T00:09:32.277Z,16.1
2016-08-07T00:09:42.273Z,16.1
2016-08-07T00:09:52.267Z,16.1
2016-08-07T00:10:02.264Z,16.1
2016-08-07T00:10:12.259Z,16.1
2016-08-07T00:10:22.254Z,16.1
2016-08-07T00:10:32.247Z,16.1
2016-08-07T00:10:42.244Z,16.1
2016-08-07T00:10:52.237Z,16.1
2016-08-07T00:11:02.961Z,16.1
2016-08-07T00:11:12.228Z,16.1
2016-08-07T00:11:22.223Z,16.2
2016-08-07T00:11:32.218Z,16.2
2016-08-07T00:11:42.215Z,16.2
2016-08-07T00:11:52.208Z,16.2
2016-08-07T00:12:02.208Z,16.1
2016-08-07T00:12:12.198Z,16.1
2016-08-07T00:12:22.195Z,16.1
2016-08-07T00:12:32.187Z,16.1
2016-08-07T00:12:42.181Z,16.1
2016-08-07T00:12:52.179Z,16.1
2016-08-07T00:13:02.175Z,16.1
2016-08-07T00:13:12.169Z,16.1
2016-08-07T00:13:22.168Z,16.1
2016-08-07T00:13:32.160Z,16.1
2016-08-07T00:13:42.157Z,16.1
2016-08-07T00:13:52.158Z,16.1
2016-08-07T00:14:02.156Z,16.1
2016-08-07T00:14:12.141Z,16.1
2016-08-07T00:14:22.136Z,16.1
2016-08-07T00:14:32.130Z,16.1
2016-08-07T00:14:42.126Z,16.1
2016-08-07T00:14:52.128Z,16.1
2016-08-07T00:15:02.117Z,16.1
2016-08-07T00:15:12.112Z,16.1
2016-08-07T00:15:22.104Z,16.1
2016-08-07T00:15:32.101Z,16.1
2016-08-07T00:15:42.096Z,16.1
2016-08-07T00:15:52.090Z,16
2016-08-07T00:16:02.085Z,16
2016-08-07T00:16:12.082Z,16
2016-08-07T00:16:22.075Z,16
2016-08-07T00:16:32.072Z,16
2016-08-07T00:16:42.066Z,16
2016-08-07T00:16:52.063Z,16
2016-08-07T00:17:02.062Z,16
2016-08-07T00:17:12.053Z,16
2016-08-07T00:17:22.047Z,16
2016-08-07T00:17:32.042Z,16
2016-08-07T00:17:42.034Z,16
2016-08-07T00:17:52.032Z,16
2016-08-07T00:18:03.483Z,16
2016-08-07T00:18:12.023Z,16
2016-08-07T00:18:22.015Z,16
2016-08-07T00:18:32.013Z,16
2016-08-07T00:18:42.737Z,16
2016-08-07T00:18:52.003Z,16
2016-08-07T00:19:01.996Z,16
2016-08-07T00:19:11.994Z,16
2016-08-07T00:19:21.992Z,16
2016-08-07T00:19:31.983Z,16
2016-08-07T00:19:41.980Z,16
2016-08-07T00:19:51.973Z,16
2016-08-07T00:20:01.971Z,16
2016-08-07T00:20:11.960Z,16
2016-08-07T00:20:21.959Z,16
2016-08-07T00:20:31.955Z,16
2016-08-07T00:20:41.949Z,16
2016-08-07T00:20:51.945Z,16
2016-08-07T00:21:01.940Z,16
2016-08-07T00:21:11.933Z,15.9
2016-08-07T00:21:21.928Z,15.9
2016-08-07T00:21:31.921Z,15.9
2016-08-07T00:21:41.916Z,15.9
2016-08-07T00:21:52.647Z,16
2016-08-07T00:22:01.922Z,16
2016-08-07T00:22:11.903Z,16
2016-08-07T00:22:21.898Z,16
2016-08-07T00:22:31.894Z,16
2016-08-07T00:22:41.890Z,16
2016-08-07T00:22:51.888Z,16
2016-08-07T00:23:01.880Z,16
2016-08-07T00:23:11.875Z,16
2016-08-07T00:23:21.869Z,16
2016-08-07T00:23:31.865Z,16
2016-08-07T00:23:41.858Z,16
2016-08-07T00:23:51.853Z,16
2016-08-07T00:24:01.852Z,16
2016-08-07T00:24:11.846Z,16
2016-08-07T00:24:21.841Z,16
2016-08-07T00:24:31.835Z,16
2016-08-07T00:24:41.827Z,16
2016-08-07T00:24:51.825Z,16
2016-08-07T00:25:01.821Z,16
2016-08-07T00:25:11.819Z,16
2016-08-07T00:25:22.542Z,16
2016-08-07T00:25:31.806Z,16
2016-08-07T00:25:41.800Z,16
2016-08-07T00:25:51.796Z,16
2016-08-07T00:26:01.790Z,16
2016-08-07T00:26:11.787Z,15.9
2016-08-07T00:26:21.781Z,15.9
2016-08-07T00:26:31.774Z,15.9
2016-08-07T00:26:41.770Z,15.9
2016-08-07T00:26:51.769Z,15.9
2016-08-07T00:27:01.760Z,15.9
2016-08-07T00:27:11.756Z,15.9
2016-08-07T00:27:21.750Z,15.9
2016-08-07T00:27:31.746Z,15.9
2016-08-07T00:27:41.740Z,15.9
2016-08-07T00:27:51.736Z,15.9
2016-08-07T00:28:01.733Z,15.9
2016-08-07T00:28:11.726Z,15.9
2016-08-07T00:28:21.722Z,15.9
2016-08-07T00:28:31.718Z,15.9
2016-08-07T00:28:41.712Z,15.9
2016-08-07T00:28:51.712Z,15.9
2016-08-07T00:29:01.702Z,15.9
2016-08-07T00:29:11.695Z,15.9
2016-08-07T00:29:21.693Z,15.9
2016-08-07T00:29:31.689Z,15.9
2016-08-07T00:29:41.681Z,15.9
2016-08-07T00:29:51.676Z,15.9
2016-08-07T00:30:01.671Z,15.9
2016-08-07T00:30:11.666Z,15.9
2016-08-07T00:30:21.664Z,15.9
2016-08-07T00:30:31.658Z,15.9
2016-08-07T00:30:41.653Z,15.8
2016-08-07T00:30:51.648Z,15.8
2016-08-07T00:31:02.375Z,15.8
2016-08-07T00:31:11.646Z,15.8
2016-08-07T00:31:21.634Z,15.8
2016-08-07T00:31:31.635Z,15.8
2016-08-07T00:31:41.624Z,15.8
2016-08-07T00:31:51.619Z,15.8
2016-08-07T00:32:01.615Z,15.8
2016-08-07T00:32:11.610Z,15.8
2016-08-07T00:32:21.603Z,15.8
2016-08-07T00:32:31.596Z,15.8
2016-08-07T00:32:41.594Z,15.8
2016-08-07T00:32:51.587Z,15.8
2016-08-07T00:33:01.583Z,15.8
2016-08-07T00:33:11.577Z,15.8
2016-08-07T00:33:21.573Z,15.8
2016-08-07T00:33:31.569Z,15.8
2016-08-07T00:33:41.560Z,15.8
2016-08-07T00:33:51.559Z,15.8
2016-08-07T00:34:01.552Z,15.8
2016-08-07T00:34:11.550Z,15.8
2016-08-07T00:34:21.544Z,15.8
2016-08-07T00:34:31.538Z,15.7
2016-08-07T00:34:41.533Z,15.7
2016-08-07T00:34:51.533Z,15.8
2016-08-07T00:35:01.523Z,15.7
2016-08-07T00:35:11.526Z,15.7
2016-08-07T00:35:21.512Z,15.8
2016-08-07T00:35:31.511Z,15.7
2016-08-07T00:35:41.511Z,15.8
2016-08-07T00:35:51.505Z,15.7
2016-08-07T00:36:01.495Z,15.7
2016-08-07T00:36:11.491Z,15.7
2016-08-07T00:36:21.482Z,15.7
2016-08-07T00:36:31.481Z,15.7
2016-08-07T00:36:41.474Z,15.7
2016-08-07T00:36:51.470Z,15.7
2016-08-07T00:37:01.464Z,15.7
2016-08-07T00:37:11.458Z,15.7
2016-08-07T00:37:21.455Z,15.7
2016-08-07T00:37:31.451Z,15.7
2016-08-07T00:37:41.443Z,15.7
2016-08-07T00:37:51.442Z,15.7
2016-08-07T00:38:01.438Z,15.7
2016-08-07T00:38:11.430Z,15.7
2016-08-07T00:38:21.427Z,15.7
2016-08-07T00:38:31.420Z,15.7
2016-08-07T00:38:41.415Z,15.7
2016-08-07T00:38:51.411Z,15.7
2016-08-07T00:39:01.407Z,15.7
2016-08-07T00:39:11.399Z,15.7
2016-08-07T00:39:21.396Z,15.7
2016-08-07T00:39:31.390Z,15.7
2016-08-07T00:39:41.388Z,15.7
2016-08-07T00:39:51.381Z,15.7
2016-08-07T00:40:01.378Z,15.7
2016-08-07T00:40:11.371Z,15.7
2016-08-07T00:40:21.365Z,15.7
2016-08-07T00:40:31.362Z,15.7
2016-08-07T00:40:41.362Z,15.7
2016-08-07T00:40:51.352Z,15.7
2016-08-07T00:41:01.349Z,15.7
2016-08-07T00:41:11.343Z,15.7
2016-08-07T00:41:21.335Z,15.7
2016-08-07T00:41:31.349Z,15.7
2016-08-07T00:41:41.326Z,15.7
2016-08-07T00:41:51.319Z,15.7
2016-08-07T00:42:01.315Z,15.7
2016-08-07T00:42:11.313Z,15.7
2016-08-07T00:42:21.328Z,15.7
2016-08-07T00:42:31.316Z,15.7
2016-08-07T00:42:41.297Z,15.7
2016-08-07T00:42:51.292Z,15.7
2016-08-07T00:43:01.290Z,15.7
2016-08-07T00:43:11.364Z,15.7
2016-08-07T00:43:21.279Z,15.7
2016-08-07T00:43:31.274Z,15.7
2016-08-07T00:43:41.271Z,15.7
2016-08-07T00:43:51.992Z,15.7
2016-08-07T00:44:01.266Z,15.7
2016-08-07T00:44:11.255Z,15.7
2016-08-07T00:44:21.247Z,15.7
2016-08-07T00:44:31.245Z,15.7
2016-08-07T00:44:41.238Z,15.7
2016-08-07T00:44:51.233Z,15.7
2016-08-07T00:45:01.241Z,15.7
2016-08-07T00:45:11.399Z,15.7
2016-08-07T00:45:21.219Z,15.7
2016-08-07T00:45:31.214Z,15.7
2016-08-07T00:45:41.209Z,15.7
2016-08-07T00:45:51.205Z,15.7
2016-08-07T00:46:03.626Z,15.7
2016-08-07T00:46:11.218Z,15.7
2016-08-07T00:46:21.189Z,15.7
2016-08-07T00:46:31.183Z,15.7
2016-08-07T00:46:41.182Z,15.7
2016-08-07T00:46:51.195Z,15.7
2016-08-07T00:47:01.189Z,15.6
2016-08-07T00:47:11.161Z,15.6
2016-08-07T00:47:21.163Z,15.6
2016-08-07T00:47:31.154Z,15.6
2016-08-07T00:47:41.149Z,15.6
2016-08-07T00:47:51.146Z,15.6
2016-08-07T00:48:01.190Z,15.6
2016-08-07T00:48:11.138Z,15.6
2016-08-07T00:48:21.129Z,15.6
2016-08-07T00:48:31.125Z,15.6
2016-08-07T00:48:41.120Z,15.7
2016-08-07T00:48:51.115Z,15.7
2016-08-07T00:49:01.316Z,15.7
2016-08-07T00:49:11.106Z,15.7
2016-08-07T00:49:21.105Z,15.7
2016-08-07T00:49:31.098Z,15.7
2016-08-07T00:49:41.090Z,15.7
2016-08-07T00:49:51.089Z,15.7
2016-08-07T00:50:01.080Z,15.7
2016-08-07T00:50:11.076Z,15.7
2016-08-07T00:50:21.810Z,15.7
2016-08-07T00:50:31.063Z,15.7
2016-08-07T00:50:41.062Z,15.6
2016-08-07T00:50:51.056Z,15.7
2016-08-07T00:51:01.177Z,15.6
2016-08-07T00:51:11.045Z,15.6
2016-08-07T00:51:21.041Z,15.6
2016-08-07T00:51:31.034Z,15.6
2016-08-07T00:51:41.031Z,15.6
2016-08-07T00:51:51.028Z,15.6
2016-08-07T00:52:01.026Z,15.6
2016-08-07T00:52:11.016Z,15.6
2016-08-07T00:52:21.016Z,15.6
2016-08-07T00:52:31.007Z,15.6
2016-08-07T00:52:41.079Z,15.6
2016-08-07T00:52:50.998Z,15.6
2016-08-07T00:53:00.995Z,15.6
2016-08-07T00:53:10.988Z,15.6
2016-08-07T00:53:20.988Z,15.6
2016-08-07T00:53:31.026Z,15.6
2016-08-07T00:53:40.972Z,15.6
2016-08-07T00:53:50.967Z,15.6
2016-08-07T00:54:01.689Z,15.6
2016-08-07T00:54:10.955Z,15.6
2016-08-07T00:54:20.949Z,15.6
2016-08-07T00:54:30.962Z,15.6
2016-08-07T00:54:40.942Z,15.6
2016-08-07T00:54:50.936Z,15.6
2016-08-07T00:55:00.932Z,15.6
2016-08-07T00:55:10.927Z,15.6
2016-08-07T00:55:21.977Z,15.6
2016-08-07T00:55:31.132Z,15.6
2016-08-07T00:55:40.914Z,15.6
2016-08-07T00:55:50.908Z,15.6
2016-08-07T00:56:00.900Z,15.7
2016-08-07T00:56:10.898Z,15.7
2016-08-07T00:56:21.624Z,15.7
2016-08-07T00:56:30.888Z,15.7
2016-08-07T00:56:40.884Z,15.7
2016-08-07T00:56:50.917Z,15.7
2016-08-07T00:57:00.875Z,15.6
2016-08-07T00:57:10.866Z,15.6
2016-08-07T00:57:20.875Z,15.7
2016-08-07T00:57:30.858Z,15.6
2016-08-07T00:57:40.857Z,15.6
2016-08-07T00:57:51.580Z,15.6
2016-08-07T00:58:00.892Z,15.6
2016-08-07T00:58:10.840Z,15.6
2016-08-07T00:58:20.835Z,15.7
2016-08-07T00:58:30.829Z,15.7
2016-08-07T00:58:40.824Z,15.7
2016-08-07T00:58:50.821Z,15.7
2016-08-07T00:59:00.812Z,15.7
2016-08-07T00:59:10.819Z,15.7
2016-08-07T00:59:20.802Z,15.7
2016-08-07T00:59:30.800Z,15.7
2016-08-07T00:59:40.815Z,15.7
2016-08-07T00:59:50.798Z,15.7
2016-08-07T01:00:00.940Z,15.7
2016-08-07T01:00:10.778Z,15.7
2016-08-07T01:00:20.772Z,15.7
2016-08-07T01:00:30.817Z,15.7
2016-08-07T01:00:40.762Z,15.7
2016-08-07T01:00:50.795Z,15.7
2016-08-07T01:01:00.757Z,15.7
2016-08-07T01:01:10.750Z,15.7
2016-08-07T01:01:20.745Z,15.7
2016-08-07T01:01:32.576Z,15.7
2016-08-07T01:01:40.734Z,15.7
2016-08-07T01:01:50.735Z,15.7
2016-08-07T01:02:00.734Z,15.7
2016-08-07T01:02:10.719Z,15.7
2016-08-07T01:02:20.721Z,15.7
2016-08-07T01:02:30.714Z,15.7
2016-08-07T01:02:40.708Z,15.7
2016-08-07T01:02:51.428Z,15.7
2016-08-07T01:03:00.698Z,15.7
2016-08-07T01:03:12.323Z,15.7
2016-08-07T01:03:20.685Z,15.7
2016-08-07T01:03:30.681Z,15.7
2016-08-07T01:03:40.677Z,15.7
2016-08-07T01:03:50.670Z,15.6
2016-08-07T01:04:01.458Z,15.6
2016-08-07T01:04:10.660Z,15.6
2016-08-07T01:04:20.655Z,15.6
2016-08-07T01:04:30.656Z,15.6
2016-08-07T01:04:40.644Z,15.6
2016-08-07T01:04:50.637Z,15.6
2016-08-07T01:05:00.786Z,15.6
2016-08-07T01:05:10.634Z,15.6
2016-08-07T01:05:20.825Z,15.6
2016-08-07T01:05:30.664Z,15.6
2016-08-07T01:05:40.613Z,15.6
2016-08-07T01:05:50.610Z,15.6
2016-08-07T01:06:00.689Z,15.6
2016-08-07T01:06:10.601Z,15.6
2016-08-07T01:06:20.598Z,15.6
2016-08-07T01:06:30.591Z,15.6
2016-08-07T01:06:40.586Z,15.6
2016-08-07T01:06:50.582Z,15.6
2016-08-07T01:07:00.598Z,15.6
2016-08-07T01:07:11.930Z,15.5
2016-08-07T01:07:20.564Z,15.5
2016-08-07T01:07:30.564Z,15.5
2016-08-07T01:07:40.553Z,15.5
2016-08-07T01:07:50.551Z,15.5
2016-08-07T01:08:00.546Z,15.5
2016-08-07T01:08:10.547Z,15.5
2016-08-07T01:08:20.607Z,15.5
2016-08-07T01:08:30.570Z,15.5
2016-08-07T01:08:40.526Z,15.5
2016-08-07T01:08:50.518Z,15.5
2016-08-07T01:09:00.653Z,15.5
2016-08-07T01:09:10.512Z,15.5
2016-08-07T01:09:20.506Z,15.5
2016-08-07T01:09:30.503Z,15.5
2016-08-07T01:09:40.497Z,15.5
2016-08-07T01:09:51.222Z,15.5
2016-08-07T01:10:00.900Z,15.4
2016-08-07T01:10:10.969Z,15.5
2016-08-07T01:10:20.484Z,15.4
2016-08-07T01:10:30.488Z,15.4
2016-08-07T01:10:40.472Z,15.4
2016-08-07T01:10:50.460Z,15.4
2016-08-07T01:11:00.457Z,15.4
2016-08-07T01:11:10.452Z,15.4
2016-08-07T01:11:20.444Z,15.4
2016-08-07T01:11:31.174Z,15.4
2016-08-07T01:11:40.435Z,15.4
2016-08-07T01:11:50.431Z,15.4
2016-08-07T01:12:00.429Z,15.4
2016-08-07T01:12:10.424Z,15.4
2016-08-07T01:12:20.419Z,15.4
2016-08-07T01:12:30.413Z,15.4
2016-08-07T01:12:40.409Z,15.4
2016-08-07T01:12:50.402Z,15.4
2016-08-07T01:13:00.465Z,15.4
2016-08-07T01:13:11.733Z,15.4
2016-08-07T01:13:20.941Z,15.4
2016-08-07T01:13:30.385Z,15.4
2016-08-07T01:13:40.376Z,15.4
2016-08-07T01:13:50.373Z,15.4
2016-08-07T01:14:00.367Z,15.4
2016-08-07T01:14:10.363Z,15.4
2016-08-07T01:14:20.357Z,15.4
2016-08-07T01:14:30.352Z,15.4
2016-08-07T01:14:40.345Z,15.4
2016-08-07T01:14:50.341Z,15.4
2016-08-07T01:15:00.341Z,15.4
2016-08-07T01:15:10.334Z,15.4
2016-08-07T01:15:20.939Z,15.4
2016-08-07T01:15:30.501Z,15.4
2016-08-07T01:15:40.321Z,15.4
2016-08-07T01:15:50.315Z,15.4
2016-08-07T01:16:00.310Z,15.4
2016-08-07T01:16:10.316Z,15.4
2016-08-07T01:16:20.298Z,15.4
2016-08-07T01:16:30.295Z,15.4
2016-08-07T01:16:40.287Z,15.4
2016-08-07T01:16:50.284Z,15.4
2016-08-07T01:17:00.309Z,15.4
2016-08-07T01:17:11.002Z,15.4
2016-08-07T01:17:20.280Z,15.5
2016-08-07T01:17:30.992Z,15.5
2016-08-07T01:17:40.259Z,15.5
2016-08-07T01:17:50.253Z,15.5
2016-08-07T01:18:00.252Z,15.5
2016-08-07T01:18:10.243Z,15.5
2016-08-07T01:18:20.975Z,15.5
2016-08-07T01:18:30.233Z,15.5
2016-08-07T01:18:40.307Z,15.5
2016-08-07T01:18:51.025Z,15.5
2016-08-07T01:19:00.947Z,15.5
2016-08-07T01:19:10.215Z,15.5
2016-08-07T01:19:20.209Z,15.5
2016-08-07T01:19:30.202Z,15.5
2016-08-07T01:19:40.200Z,15.5
2016-08-07T01:19:50.192Z,15.5
2016-08-07T01:20:00.447Z,15.5
2016-08-07T01:20:10.186Z,15.4
2016-08-07T01:20:20.176Z,15.5
2016-08-07T01:20:30.174Z,15.5
2016-08-07T01:20:40.170Z,15.5
2016-08-07T01:20:50.190Z,15.5
2016-08-07T01:21:00.262Z,15.4
2016-08-07T01:21:10.276Z,15.4
2016-08-07T01:21:20.151Z,15.4
2016-08-07T01:21:30.145Z,15.4
2016-08-07T01:21:40.137Z,15.4
2016-08-07T01:21:50.137Z,15.4
2016-08-07T01:22:00.160Z,15.4
2016-08-07T01:22:10.125Z,15.4
2016-08-07T01:22:20.125Z,15.4
2016-08-07T01:22:30.121Z,15.4
2016-08-07T01:22:40.110Z,15.5
2016-08-07T01:22:50.104Z,15.5
2016-08-07T01:23:00.362Z,15.5
2016-08-07T01:23:10.094Z,15.5
2016-08-07T01:23:20.093Z,15.5
2016-08-07T01:23:30.084Z,15.5
2016-08-07T01:23:40.081Z,15.5
2016-08-07T01:23:50.078Z,15.5
2016-08-07T01:24:00.071Z,15.5
2016-08-07T01:24:10.066Z,15.5
2016-08-07T01:24:20.061Z,15.5
2016-08-07T01:24:30.056Z,15.5
2016-08-07T01:24:40.048Z,15.5
2016-08-07T01:24:50.047Z,15.5
2016-08-07T01:25:00.243Z,15.5
2016-08-07T01:25:10.039Z,15.5
2016-08-07T01:25:20.029Z,15.5
2016-08-07T01:25:30.103Z,15.5
2016-08-07T01:25:40.018Z,15.5
2016-08-07T01:25:50.019Z,15.4
2016-08-07T01:26:00.010Z,15.4
2016-08-07T01:26:10.009Z,15.4
2016-08-07T01:26:20.006Z,15.4
2016-08-07T01:26:29.995Z,15.4
2016-08-07T01:26:39.989Z,15.4
2016-08-07T01:26:49.986Z,15.4
2016-08-07T01:26:59.981Z,15.4
2016-08-07T01:27:10.734Z,15.4
2016-08-07T01:27:19.971Z,15.4
2016-08-07T01:27:29.966Z,15.4
2016-08-07T01:27:39.962Z,15.4
2016-08-07T01:27:49.956Z,15.4
2016-08-07T01:27:59.949Z,15.3
2016-08-07T01:28:09.945Z,15.3
2016-08-07T01:28:19.938Z,15.3
2016-08-07T01:28:29.939Z,15.4
2016-08-07T01:28:39.932Z,15.4
2016-08-07T01:28:49.927Z,15.3
2016-08-07T01:29:00.711Z,15.3
2016-08-07T01:29:09.916Z,15.3
2016-08-07T01:29:19.913Z,15.3
2016-08-07T01:29:29.907Z,15.3
2016-08-07T01:29:39.909Z,15.3
2016-08-07T01:29:49.897Z,15.3
2016-08-07T01:29:59.892Z,15.3
2016-08-07T01:30:10.836Z,15.3
2016-08-07T01:30:19.881Z,15.3
2016-08-07T01:30:29.877Z,15.3
2016-08-07T01:30:39.872Z,15.3
2016-08-07T01:30:50.619Z,15.3
2016-08-07T01:30:59.864Z,15.3
2016-08-07T01:31:11.101Z,15.3
2016-08-07T01:31:20.581Z,15.3
2016-08-07T01:31:29.845Z,15.3
2016-08-07T01:31:39.841Z,15.3
2016-08-07T01:31:49.869Z,15.3
2016-08-07T01:32:00.304Z,15.3
2016-08-07T01:32:09.830Z,15.3
2016-08-07T01:32:19.822Z,15.3
2016-08-07T01:32:29.818Z,15.3
2016-08-07T01:32:39.813Z,15.3
2016-08-07T01:32:50.555Z,15.3
2016-08-07T01:32:59.804Z,15.3
2016-08-07T01:33:10.523Z,15.3
2016-08-07T01:33:19.790Z,15.3
2016-08-07T01:33:29.797Z,15.3
2016-08-07T01:33:39.781Z,15.3
2016-08-07T01:33:49.780Z,15.3
2016-08-07T01:33:59.775Z,15.3
2016-08-07T01:34:09.767Z,15.3
2016-08-07T01:34:19.761Z,15.3
2016-08-07T01:34:29.756Z,15.3
2016-08-07T01:34:40.483Z,15.3
2016-08-07T01:34:49.747Z,15.3
2016-08-07T01:34:59.742Z,15.3
2016-08-07T01:35:09.741Z,15.3
2016-08-07T01:35:19.736Z,15.3
2016-08-07T01:35:29.741Z,15.3
2016-08-07T01:35:40.163Z,15.3
2016-08-07T01:35:51.802Z,15.4
2016-08-07T01:35:59.714Z,15.3
2016-08-07T01:36:09.709Z,15.3
2016-08-07T01:36:19.706Z,15.3
2016-08-07T01:36:29.698Z,15.3
2016-08-07T01:36:39.692Z,15.3
2016-08-07T01:36:49.693Z,15.3
2016-08-07T01:36:59.681Z,15.3
2016-08-07T01:37:09.678Z,15.3
2016-08-07T01:37:19.673Z,15.3
2016-08-07T01:37:29.669Z,15.3
2016-08-07T01:37:39.665Z,15.3
2016-08-07T01:37:49.658Z,15.3
2016-08-07T01:37:59.656Z,15.3
2016-08-07T01:38:09.648Z,15.3
2016-08-07T01:38:19.674Z,15.3
2016-08-07T01:38:29.640Z,15.3
2016-08-07T01:38:39.635Z,15.3
2016-08-07T01:38:49.630Z,15.3
2016-08-07T01:38:59.625Z,15.2
2016-08-07T01:39:09.618Z,15.2
2016-08-07T01:39:19.612Z,15.2
2016-08-07T01:39:29.605Z,15.2
2016-08-07T01:39:40.352Z,15.3
2016-08-07T01:39:49.597Z,15.3
2016-08-07T01:39:59.592Z,15.2
2016-08-07T01:40:09.587Z,15.3
2016-08-07T01:40:19.583Z,15.3
2016-08-07T01:40:29.580Z,15.2
2016-08-07T01:40:41.034Z,15.2
2016-08-07T01:40:49.574Z,15.2
2016-08-07T01:40:59.563Z,15.2
2016-08-07T01:41:09.560Z,15.2
2016-08-07T01:41:19.554Z,15.2
2016-08-07T01:41:29.551Z,15.2
2016-08-07T01:41:39.541Z,15.2
2016-08-07T01:41:49.539Z,15.2
2016-08-07T01:41:59.533Z,15.2
2016-08-07T01:42:09.544Z,15.2
2016-08-07T01:42:19.525Z,15.2
2016-08-07T01:42:29.591Z,15.2
2016-08-07T01:42:39.514Z,15.3
2016-08-07T01:42:49.519Z,15.3
2016-08-07T01:43:03.684Z,15.3
2016-08-07T01:43:10.961Z,15.3
2016-08-07T01:43:21.871Z,15.3
2016-08-07T01:43:29.487Z,15.3
2016-08-07T01:43:39.484Z,15.3
2016-08-07T01:43:50.209Z,15.3
2016-08-07T01:43:59.489Z,15.3
2016-08-07T01:44:09.539Z,15.3
2016-08-07T01:44:19.466Z,15.3
2016-08-07T01:44:29.460Z,15.3
2016-08-07T01:44:39.452Z,15.3
2016-08-07T01:44:49.448Z,15.3
2016-08-07T01:44:59.443Z,15.3
2016-08-07T01:45:09.456Z,15.3
2016-08-07T01:45:19.434Z,15.3
2016-08-07T01:45:31.291Z,15.3
2016-08-07T01:45:39.425Z,15.3
2016-08-07T01:45:49.419Z,15.3
2016-08-07T01:45:59.414Z,15.3
2016-08-07T01:46:09.411Z,15.3
2016-08-07T01:46:19.407Z,15.3
2016-08-07T01:46:29.402Z,15.3
2016-08-07T01:46:39.395Z,15.3
2016-08-07T01:46:49.419Z,15.3
2016-08-07T01:46:59.385Z,15.2
2016-08-07T01:47:09.379Z,15.2
2016-08-07T01:47:19.376Z,15.2
2016-08-07T01:47:29.366Z,15.2
2016-08-07T01:47:39.378Z,15.2
2016-08-07T01:47:49.358Z,15.2
2016-08-07T01:47:59.359Z,15.2
2016-08-07T01:48:09.350Z,15.2
2016-08-07T01:48:20.073Z,15.2
2016-08-07T01:48:29.342Z,15.2
2016-08-07T01:48:39.335Z,15.2
2016-08-07T01:48:51.692Z,15.2
2016-08-07T01:48:59.325Z,15.1
2016-08-07T01:49:09.319Z,15.1
2016-08-07T01:49:19.317Z,15.1
2016-08-07T01:49:29.309Z,15.1
2016-08-07T01:49:39.303Z,15.1
2016-08-07T01:49:49.302Z,15.1
2016-08-07T01:49:59.292Z,15.1
2016-08-07T01:50:10.026Z,15.1
2016-08-07T01:50:19.376Z,15.1
2016-08-07T01:50:29.283Z,15.1
2016-08-07T01:50:39.276Z,15.2
2016-08-07T01:50:49.271Z,15.1
2016-08-07T01:50:59.266Z,15.2
2016-08-07T01:51:09.260Z,15.2
2016-08-07T01:51:19.253Z,15.2
2016-08-07T01:51:29.259Z,15.2
2016-08-07T01:51:39.246Z,15.2
2016-08-07T01:51:49.246Z,15.2
2016-08-07T01:51:59.236Z,15.2
2016-08-07T01:52:11.053Z,15.2
2016-08-07T01:52:19.226Z,15.2
2016-08-07T01:52:29.221Z,15.3
2016-08-07T01:52:39.222Z,15.3
2016-08-07T01:52:49.209Z,15.3
2016-08-07T01:52:59.206Z,15.3
2016-08-07T01:53:09.197Z,15.3
2016-08-07T01:53:19.924Z,15.3
2016-08-07T01:53:29.193Z,15.3
2016-08-07T01:53:39.186Z,15.3
2016-08-07T01:53:49.182Z,15.3
2016-08-07T01:53:59.239Z,15.3
2016-08-07T01:54:09.169Z,15.3
2016-08-07T01:54:19.166Z,15.3
2016-08-07T01:54:29.161Z,15.3
2016-08-07T01:54:39.155Z,15.3
2016-08-07T01:54:49.150Z,15.3
2016-08-07T01:54:59.146Z,15.3
2016-08-07T01:55:09.140Z,15.3
2016-08-07T01:55:19.186Z,15.3
2016-08-07T01:55:29.130Z,15.3
2016-08-07T01:55:39.128Z,15.3
2016-08-07T01:55:49.122Z,15.3
2016-08-07T01:55:59.116Z,15.3
2016-08-07T01:56:10.714Z,15.3
2016-08-07T01:56:19.105Z,15.3
2016-08-07T01:56:29.101Z,15.3
2016-08-07T01:56:39.118Z,15.3
2016-08-07T01:56:49.091Z,15.3
2016-08-07T01:56:59.087Z,15.3
2016-08-07T01:57:09.082Z,15.3
2016-08-07T01:57:19.074Z,15.3
2016-08-07T01:57:29.072Z,15.3
2016-08-07T01:57:39.153Z,15.3
2016-08-07T01:57:49.063Z,15.3
2016-08-07T01:57:59.055Z,15.3
2016-08-07T01:58:09.055Z,15.3
2016-08-07T01:58:19.048Z,15.3
2016-08-07T01:58:29.053Z,15.3
2016-08-07T01:58:39.034Z,15.3
2016-08-07T01:58:49.758Z,15.3
2016-08-07T01:58:59.025Z,15.3
2016-08-07T01:59:09.031Z,15.3
2016-08-07T01:59:19.015Z,15.3
2016-08-07T01:59:29.009Z,15.3
2016-08-07T01:59:39.007Z,15.3
2016-08-07T01:59:49.002Z,15.3
2016-08-07T01:59:58.998Z,15.3
2016-08-07T02:00:09.197Z,15.3
2016-08-07T02:00:18.988Z,15.3
2016-08-07T02:00:28.983Z,15.3
2016-08-07T02:00:38.977Z,15.4
2016-08-07T02:00:48.972Z,15.4
2016-08-07T02:00:58.966Z,15.3
2016-08-07T02:01:08.965Z,15.3
2016-08-07T02:01:18.958Z,15.3
2016-08-07T02:01:28.950Z,15.3
2016-08-07T02:01:38.945Z,15.3
2016-08-07T02:01:48.940Z,15.3
2016-08-07T02:01:59.675Z,15.3
2016-08-07T02:02:08.928Z,15.3
2016-08-07T02:02:18.927Z,15.3
2016-08-07T02:02:28.919Z,15.3
2016-08-07T02:02:38.915Z,15.3
2016-08-07T02:02:48.911Z,15.3
2016-08-07T02:02:58.913Z,15.2
2016-08-07T02:03:08.899Z,15.3
2016-08-07T02:03:18.896Z,15.2
2016-08-07T02:03:28.891Z,15.2
2016-08-07T02:03:38.888Z,15.2
2016-08-07T02:03:48.882Z,15.2
2016-08-07T02:03:58.877Z,15.2
2016-08-07T02:04:09.114Z,15.2
2016-08-07T02:04:18.876Z,15.3
2016-08-07T02:04:28.862Z,15.2
2016-08-07T02:04:38.855Z,15.2
2016-08-07T02:04:48.851Z,15.2
2016-08-07T02:04:58.846Z,15.2
2016-08-07T02:05:09.132Z,15.2
2016-08-07T02:05:18.834Z,15.2
2016-08-07T02:05:28.831Z,15.2
2016-08-07T02:05:38.826Z,15.2
2016-08-07T02:05:48.823Z,15.2
2016-08-07T02:05:58.831Z,15.2
2016-08-07T02:06:08.816Z,15.2
2016-08-07T02:06:18.808Z,15.2
2016-08-07T02:06:29.528Z,15.2
2016-08-07T02:06:38.798Z,15.2
2016-08-07T02:06:48.793Z,15.2
2016-08-07T02:06:58.785Z,15.2
2016-08-07T02:07:08.780Z,15.2
2016-08-07T02:07:18.780Z,15.2
2016-08-07T02:07:28.769Z,15.1
2016-08-07T02:07:39.802Z,15.1
2016-08-07T02:07:48.772Z,15.1
2016-08-07T02:07:58.756Z,15.1
2016-08-07T02:08:08.749Z,15.1
2016-08-07T02:08:18.748Z,15.1
2016-08-07T02:08:28.740Z,15.1
2016-08-07T02:08:38.744Z,15.1
2016-08-07T02:08:48.748Z,15.1
2016-08-07T02:08:58.728Z,15.1
2016-08-07T02:09:09.508Z,15.1
2016-08-07T02:09:18.768Z,15.1
2016-08-07T02:09:28.711Z,15.1
2016-08-07T02:09:38.714Z,15.1
2016-08-07T02:09:48.701Z,15.1
2016-08-07T02:09:58.694Z,15.1
2016-08-07T02:10:08.691Z,15.1
2016-08-07T02:10:18.984Z,15.1
2016-08-07T02:10:29.409Z,15.1
2016-08-07T02:10:41.562Z,15.1
2016-08-07T02:10:48.669Z,15.1
2016-08-07T02:10:59.535Z,15.1
2016-08-07T02:11:08.662Z,15.1
2016-08-07T02:11:19.469Z,15.1
2016-08-07T02:11:28.652Z,15.1
2016-08-07T02:11:39.384Z,15.1
2016-08-07T02:11:48.643Z,15.1
2016-08-07T02:11:58.637Z,15.1
2016-08-07T02:12:08.635Z,15.1
2016-08-07T02:12:19.356Z,15.1
2016-08-07T02:12:28.622Z,15.1
2016-08-07T02:12:38.615Z,15.1
2016-08-07T02:12:48.609Z,15.1
2016-08-07T02:12:58.614Z,15.1
2016-08-07T02:13:08.601Z,15.1
2016-08-07T02:13:18.595Z,15.1
2016-08-07T02:13:29.319Z,15.1
2016-08-07T02:13:38.587Z,15.1
2016-08-07T02:13:48.579Z,15.1